createdAt,value
2022-11-24T09:00:31.668Z,22.20
2022-11-24T09:02:59.536Z,14.73
2022-11-24T09:05:51.096Z,7.00
2022-11-24T09:08:13.801Z,6.60
2022-11-24T09:10:40.838Z,6.13
2022-11-24T09:13:07.866Z,12.88
2022-11-24T09:15:35.623Z,4.78
2022-11-24T09:18:02.682Z,6.68
2022-11-24T09:20:29.707Z,3.08
2022-11-24T09:22:57.019Z,2.72
2022-11-24T09:25:24.084Z,3.38
2022-11-24T09:27:51.238Z,3.33
2022-11-24T09:30:18.379Z,8.80
2022-11-24T09:32:45.431Z,3.33
2022-11-24T09:35:12.462Z,5.40
2022-11-24T09:37:39.519Z,3.77
2022-11-24T09:40:07.422Z,5.23
2022-11-24T09:43:05.020Z,10.07
2022-11-24T09:46:06.787Z,10.50
2022-11-24T09:48:39.795Z,8.93
2022-11-24T09:51:14.111Z,7.20
2022-11-24T09:53:48.563Z,10.88
2022-11-24T09:56:27.919Z,6.20
2022-11-24T09:59:02.713Z,7.57
2022-11-24T10:01:35.657Z,6.77
2022-11-24T10:04:06.663Z,7.27
2022-11-24T10:07:10.573Z,5.67
2022-11-24T10:10:03.199Z,5.40
2022-11-24T10:12:43.277Z,5.53
2022-11-24T10:15:19.315Z,6.63
2022-11-24T10:18:01.015Z,4.78
2022-11-24T10:20:31.139Z,4.35
2022-11-24T10:23:19.061Z,4.23
2022-11-24T10:25:57.673Z,4.78
2022-11-24T10:28:39.524Z,4.57
2022-11-24T10:31:32.506Z,3.92
2022-11-24T10:34:09.396Z,4.05
2022-11-24T10:36:46.332Z,4.17
2022-11-24T10:39:46.443Z,4.10
2022-11-24T10:42:40.206Z,3.67
2022-11-24T10:45:11.696Z,3.55
2022-11-24T10:47:40.225Z,3.70
2022-11-24T10:50:22.073Z,3.00
2022-11-24T10:53:08.055Z,3.03
2022-11-24T10:55:53.969Z,2.97
2022-11-24T10:58:26.708Z,2.40
2022-11-24T11:01:18.001Z,2.60
2022-11-24T11:03:55.089Z,2.20
2022-11-24T11:06:24.265Z,2.13
2022-11-24T11:09:14.289Z,2.38
2022-11-24T11:11:42.850Z,2.30
2022-11-24T11:14:12.787Z,2.15
2022-11-24T11:16:50.701Z,1.90
2022-11-24T11:19:49.335Z,2.75
2022-11-24T11:22:35.882Z,4.30
2022-11-24T11:25:14.875Z,6.97
2022-11-24T11:27:42.334Z,5.53
2022-11-24T11:36:14.554Z,5.18
2022-11-24T11:38:42.983Z,5.30
2022-11-24T11:41:31.322Z,4.68
2022-11-24T11:44:28.900Z,3.67
2022-11-24T11:46:58.869Z,3.63
2022-11-24T11:49:26.265Z,3.42
2022-11-24T11:52:39.191Z,4.32
2022-11-24T11:55:18.266Z,3.30
2022-11-24T11:58:12.967Z,3.55
2022-11-24T12:00:48.382Z,2.87
2022-11-24T12:03:25.689Z,2.92
2022-11-24T12:06:15.365Z,2.60
2022-11-24T12:09:20.798Z,3.55
2022-11-24T12:12:36.060Z,4.10
2022-11-24T12:15:39.482Z,3.55
2022-11-24T12:18:55.174Z,3.90
2022-11-24T12:21:25.941Z,3.33
2022-11-24T12:24:03.794Z,5.10
2022-11-24T12:26:38.958Z,5.35
2022-11-24T12:29:38.198Z,4.97
2022-11-24T12:32:32.256Z,4.38
2022-11-24T12:35:16.047Z,5.10
2022-11-24T12:37:51.910Z,4.32
2022-11-24T12:40:35.239Z,3.50
2022-11-24T12:43:15.764Z,3.13
2022-11-24T12:45:57.834Z,2.90
2022-11-24T12:48:28.058Z,2.92
2022-11-24T12:50:56.545Z,3.20
2022-11-24T12:53:29.212Z,2.92
2022-11-24T12:56:04.436Z,3.40
2022-11-24T12:58:42.833Z,2.97
2022-11-24T13:01:18.412Z,3.05
2022-11-24T13:03:57.360Z,2.97
2022-11-24T13:06:49.901Z,3.40
2022-11-24T13:09:17.331Z,4.30
2022-11-24T13:11:52.135Z,4.00
2022-11-24T13:14:22.889Z,5.32
2022-11-24T13:17:29.738Z,5.17
2022-11-24T13:20:19.048Z,5.57
2022-11-24T13:22:50.532Z,6.00
2022-11-24T13:25:24.013Z,10.30
2022-11-24T13:27:53.351Z,7.17
2022-11-24T13:30:35.565Z,5.15
2022-11-24T13:33:29.300Z,5.25
2022-11-24T13:36:02.575Z,4.97
2022-11-24T13:38:44.710Z,4.70
2022-11-24T13:41:31.874Z,4.28
2022-11-24T13:44:17.080Z,4.20
2022-11-24T13:47:01.777Z,3.95
2022-11-24T13:49:38.768Z,3.63
2022-11-24T13:52:44.382Z,3.00
2022-11-24T13:55:11.670Z,2.70
2022-11-24T13:57:40.097Z,2.60
2022-11-24T14:00:27.648Z,3.10
2022-11-24T14:03:03.596Z,2.50
2022-11-24T14:05:38.978Z,3.08
2022-11-24T14:08:14.462Z,2.25
2022-11-24T14:10:42.834Z,2.25
2022-11-24T14:13:31.233Z,1.92
2022-11-24T14:16:04.340Z,2.27
2022-11-24T14:18:39.327Z,2.00
2022-11-24T14:21:24.254Z,1.90
2022-11-24T14:24:01.273Z,2.17
2022-11-24T14:26:37.128Z,2.72
2022-11-24T14:29:20.423Z,4.00
2022-11-24T14:31:58.357Z,2.80
2022-11-24T14:34:28.297Z,2.97
2022-11-24T14:36:56.944Z,2.63
2022-11-24T14:39:27.922Z,2.97
2022-11-24T14:42:18.066Z,2.60
2022-11-24T14:44:45.206Z,1.95
2022-11-24T14:47:31.759Z,2.60
2022-11-24T14:50:09.965Z,2.20
2022-11-24T14:52:53.525Z,2.72
2022-11-24T14:55:26.576Z,2.80
2022-11-24T14:57:54.054Z,4.15
2022-11-24T15:00:24.652Z,2.63
2022-11-24T15:03:07.855Z,2.83
2022-11-24T15:05:53.763Z,3.45
2022-11-24T15:08:22.162Z,2.63
2022-11-24T15:10:57.418Z,3.05
2022-11-24T15:13:25.852Z,3.08
2022-11-24T15:16:03.811Z,2.80
2022-11-24T15:18:37.158Z,2.95
2022-11-24T15:21:04.526Z,2.75
2022-11-24T15:23:33.180Z,2.60
2022-11-24T15:26:02.962Z,2.33
2022-11-24T15:28:31.222Z,1.83
2022-11-24T15:31:02.794Z,2.28
2022-11-24T15:33:30.563Z,2.10
2022-11-24T15:35:57.737Z,1.88
2022-11-24T15:38:24.911Z,1.55
2022-11-24T15:40:54.146Z,1.90
2022-11-24T15:43:40.603Z,1.57
2022-11-24T15:46:08.766Z,1.45
2022-11-24T15:48:35.869Z,1.50
2022-11-24T15:51:06.140Z,1.38
2022-11-24T15:53:35.295Z,1.20
2022-11-24T15:56:05.745Z,1.20
2022-11-24T15:58:32.809Z,1.48
2022-11-24T16:01:00.108Z,1.10
2022-11-24T16:06:23.628Z,1.70
2022-11-24T16:08:52.789Z,1.40
2022-11-24T16:11:20.625Z,1.60
2022-11-24T16:13:52.273Z,1.80
2022-11-24T16:16:20.662Z,2.08
2022-11-24T16:18:47.751Z,1.80
2022-11-24T16:21:14.995Z,1.80
2022-11-24T16:23:42.274Z,2.70
2022-11-24T16:26:10.120Z,3.50
2022-11-24T16:28:37.301Z,2.57
2022-11-24T16:31:04.627Z,3.40
2022-11-24T16:33:31.717Z,2.53
2022-11-24T16:35:58.882Z,2.30
2022-11-24T16:38:25.979Z,1.67
2022-11-24T16:40:54.316Z,1.80
2022-11-24T16:43:21.793Z,1.40
2022-11-24T16:46:21.947Z,0.90
2022-11-24T16:48:51.813Z,1.00
2022-11-24T16:51:20.941Z,0.95
2022-11-24T16:53:49.038Z,3.45
2022-11-24T16:56:17.172Z,2.50
2022-11-24T16:58:44.330Z,3.53
2022-11-24T17:01:13.209Z,4.80
